Time;durP1;ratioP1;P1;durP2;ratioP2;P2;SDS_P1;SDS_P2;PMS_P1;PMS_P2;Temp;Humidity;BMP_temperature;BMP_pressure;BME280_temperature;BME280_humidity;BME280_pressure;Samples;Min_cycle;Max_cycle;Signal;HPM_P1;HPM_P2
2021/05/04 00:01:25;;;;;;;5.00;3.20;;;11.00;50.10;;;;;;5032205;28;20081;-73
2021/05/04 00:03:51;;;;;;;6.25;3.20;;;11.00;50.20;;;;;;5031388;28;20497;-74
2021/05/04 00:06:17;;;;;;;5.18;3.40;;;11.00;50.30;;;;;;5032523;28;20119;-74
2021/05/04 00:08:44;;;;;;;5.95;3.08;;;11.00;50.40;;;;;;5033851;28;20049;-73
2021/05/04 00:11:10;;;;;;;6.45;3.42;;;10.90;50.60;;;;;;5039803;28;20045;-73
2021/05/04 00:13:36;;;;;;;4.65;2.95;;;10.90;50.80;;;;;;5039732;28;20115;-74
2021/05/04 00:16:03;;;;;;;4.03;3.10;;;10.90;51.10;;;;;;5032195;28;20068;-73
2021/05/04 00:18:30;;;;;;;5.80;3.50;;;10.90;51.40;;;;;;5034397;28;20114;-74
2021/05/04 00:20:57;;;;;;;5.45;3.58;;;10.80;51.40;;;;;;5031642;28;20045;-73
2021/05/04 00:23:23;;;;;;;5.30;3.55;;;10.90;51.60;;;;;;5032820;28;20068;-73
2021/05/04 00:25:50;;;;;;;6.97;3.38;;;10.80;51.80;;;;;;5031888;28;20080;-73
2021/05/04 00:28:16;;;;;;;4.53;3.45;;;10.70;52.00;;;;;;5035294;28;20144;-73
2021/05/04 00:30:55;;;;;;;4.22;3.10;;;10.70;52.10;;;;;;5031690;28;20052;-75
2021/05/04 00:33:22;;;;;;;7.45;3.78;;;10.70;52.10;;;;;;5033986;28;20053;-73
2021/05/04 00:35:48;;;;;;;5.63;3.30;;;10.70;52.10;;;;;;5034617;28;20057;-75
2021/05/04 00:38:15;;;;;;;4.93;3.10;;;10.80;52.00;;;;;;5036135;28;20139;-75
2021/05/04 00:40:42;;;;;;;7.55;3.30;;;10.80;51.90;;;;;;5031686;28;20091;-75
2021/05/04 00:43:08;;;;;;;4.60;3.03;;;10.90;51.80;;;;;;5031995;28;20053;-74
2021/05/04 00:45:34;;;;;;;4.82;3.42;;;10.80;52.00;;;;;;5031776;28;20448;-74
2021/05/04 00:48:01;;;;;;;4.57;3.10;;;10.80;52.00;;;;;;5034907;28;20132;-74
2021/05/04 00:50:27;;;;;;;6.65;2.80;;;10.80;52.00;;;;;;5030226;28;20057;-74
2021/05/04 00:52:54;;;;;;;9.23;3.33;;;10.80;52.10;;;;;;5030813;28;20085;-75
2021/05/04 00:55:21;;;;;;;7.15;3.40;;;10.70;52.20;;;;;;5030836;28;20436;-74
2021/05/04 00:57:49;;;;;;;5.32;3.40;;;10.70;52.50;;;;;;5033036;28;20585;-74
2021/05/04 01:00:16;;;;;;;3.42;2.63;;;10.70;52.50;;;;;;5033282;28;20460;-74
2021/05/04 01:02:43;;;;;;;4.63;3.50;;;10.70;52.40;;;;;;5035824;28;20102;-73
2021/05/04 01:05:11;;;;;;;6.28;3.55;;;10.70;52.70;;;;;;5033817;28;20057;-74
2021/05/04 01:07:38;;;;;;;4.25;3.15;;;10.70;52.60;;;;;;5034561;28;20124;-74
2021/05/04 01:10:06;;;;;;;5.63;2.95;;;10.70;52.90;;;;;;5031671;28;20053;-74
2021/05/04 01:12:32;;;;;;;4.93;3.10;;;10.70;52.70;;;;;;5032054;28;20045;-74
2021/05/04 01:14:59;;;;;;;4.75;3.30;;;10.60;52.80;;;;;;5030998;28;20053;-74
2021/05/04 01:17:25;;;;;;;4.63;2.90;;;10.60;52.90;;;;;;5030882;28;20088;-74
2021/05/04 01:19:52;;;;;;;4.30;2.90;;;10.60;53.00;;;;;;5031986;28;20091;-74
2021/05/04 01:22:18;;;;;;;4.55;2.90;;;10.70;53.10;;;;;;5031269;28;20072;-74
2021/05/04 01:24:44;;;;;;;4.43;3.25;;;10.70;52.90;;;;;;5033669;28;21091;-74
2021/05/04 01:27:13;;;;;;;5.40;2.97;;;10.80;52.90;;;;;;5032628;28;20072;-74
2021/05/04 01:29:41;;;;;;;;;;;10.70;52.60;;;;;;5033387;28;20049;-74
2021/05/04 01:32:09;;;;;;;4.22;2.95;;;10.70;52.80;;;;;;5033465;28;19925;-74
2021/05/04 01:34:36;;;;;;;5.30;3.40;;;10.70;52.70;;;;;;5031649;28;20067;-75
2021/05/04 01:37:04;;;;;;;4.78;3.05;;;10.80;52.70;;;;;;5034183;28;20351;-74
2021/05/04 01:39:50;;;;;;;6.72;3.17;;;10.80;52.60;;;;;;5030714;28;20381;-74
2021/05/04 01:42:18;;;;;;;7.78;3.10;;;10.70;52.70;;;;;;5030343;28;20455;-74
2021/05/04 01:44:46;;;;;;;6.13;3.03;;;10.70;52.70;;;;;;5030511;28;20050;-75
2021/05/04 01:47:13;;;;;;;3.80;2.90;;;10.70;52.80;;;;;;5032716;28;20049;-75
2021/05/04 01:49:41;;;;;;;6.10;3.50;;;10.70;52.70;;;;;;5030739;28;20055;-75
2021/05/04 01:52:09;;;;;;;4.68;3.13;;;10.70;53.00;;;;;;5032102;28;20041;-74
2021/05/04 01:54:35;;;;;;;4.88;3.45;;;10.70;53.00;;;;;;5031692;28;20053;-74
2021/05/04 01:57:03;;;;;;;4.10;3.20;;;10.60;53.30;;;;;;5047134;28;20049;-74
2021/05/04 01:59:30;;;;;;;5.22;3.10;;;10.60;53.60;;;;;;5031324;28;20127;-73
2021/05/04 02:01:57;;;;;;;5.30;3.30;;;10.60;53.70;;;;;;5032695;28;20045;-74
2021/05/04 02:04:24;;;;;;;5.50;3.55;;;10.50;54.20;;;;;;5028146;28;20492;-74
2021/05/04 02:06:51;;;;;;;5.43;3.70;;;10.40;54.50;;;;;;5030761;28;20053;-74
2021/05/04 02:09:18;;;;;;;4.22;3.03;;;10.30;54.50;;;;;;5030732;28;20057;-73
2021/05/04 02:11:44;;;;;;;5.75;3.38;;;10.40;54.60;;;;;;5032748;28;20057;-75
2021/05/04 02:14:11;;;;;;;8.35;3.30;;;10.40;54.90;;;;;;5029117;28;20058;-74
2021/05/04 02:16:37;;;;;;;5.38;3.70;;;10.30;54.90;;;;;;5039164;28;20049;-75
2021/05/04 02:19:04;;;;;;;7.03;3.63;;;10.30;55.10;;;;;;5038803;28;20067;-74
2021/05/04 02:21:31;;;;;;;4.10;3.35;;;10.30;55.10;;;;;;5032202;28;20407;-74
2021/05/04 02:23:57;;;;;;;6.00;3.30;;;10.30;55.30;;;;;;5028562;28;20143;-74
2021/05/04 02:26:23;;;;;;;4.13;3.25;;;10.40;55.70;;;;;;5032693;28;20085;-75
2021/05/04 02:28:50;;;;;;;5.03;3.33;;;10.40;55.00;;;;;;5031867;28;20115;-75
2021/05/04 02:31:16;;;;;;;4.93;3.55;;;10.30;55.20;;;;;;5031589;28;20084;-75
2021/05/04 02:33:43;;;;;;;4.22;3.65;;;10.40;55.20;;;;;;5028875;28;20148;-73
2021/05/04 02:36:11;;;;;;;5.45;3.50;;;10.30;55.20;;;;;;5033996;28;20132;-75
2021/05/04 02:38:38;;;;;;;5.15;3.30;;;10.40;55.00;;;;;;5031004;28;20112;-74
2021/05/04 02:41:06;;;;;;;4.95;3.58;;;10.30;55.30;;;;;;5030830;28;20057;-73
2021/05/04 02:43:33;;;;;;;4.20;3.33;;;10.20;55.70;;;;;;5023081;28;20041;-74
2021/05/04 02:46:00;;;;;;;4.15;3.42;;;10.30;55.40;;;;;;5029820;28;20111;-74
2021/05/04 02:48:27;;;;;;;4.55;3.30;;;10.20;55.50;;;;;;5032610;28;20057;-73
2021/05/04 02:50:53;;;;;;;4.93;3.25;;;10.20;55.50;;;;;;5033788;28;20495;-73
2021/05/04 02:53:20;;;;;;;3.83;2.90;;;10.10;55.70;;;;;;5032282;28;20053;-74
2021/05/04 02:55:47;;;;;;;6.20;3.80;;;10.10;55.80;;;;;;5030625;28;21240;-74
2021/05/04 02:58:14;;;;;;;5.82;3.65;;;10.00;55.70;;;;;;5033290;28;20481;-75
2021/05/04 03:00:40;;;;;;;6.15;3.45;;;10.00;55.70;;;;;;5032232;28;20148;-74
2021/05/04 03:03:07;;;;;;;6.13;3.35;;;10.10;55.70;;;;;;5033739;28;20111;-74
2021/05/04 03:05:33;;;;;;;5.07;3.03;;;10.10;55.60;;;;;;5037750;28;20095;-73
2021/05/04 03:08:00;;;;;;;6.93;3.35;;;10.10;55.80;;;;;;5037978;28;20517;-74
2021/05/04 03:10:26;;;;;;;4.68;3.28;;;10.10;55.60;;;;;;5034148;28;20103;-74
2021/05/04 03:12:53;;;;;;;4.60;3.55;;;10.20;55.60;;;;;;5040459;28;20087;-73
2021/05/04 03:15:19;;;;;;;5.85;3.30;;;10.10;55.50;;;;;;5039025;28;20128;-73
2021/05/04 03:17:45;;;;;;;5.85;3.78;;;10.10;55.50;;;;;;5032210;28;20041;-73
2021/05/04 03:20:12;;;;;;;5.10;3.13;;;10.20;55.80;;;;;;5033800;28;20096;-75
2021/05/04 03:22:39;;;;;;;5.32;3.58;;;10.10;55.90;;;;;;5032374;28;20045;-74
2021/05/04 03:25:06;;;;;;;6.88;3.60;;;10.10;56.10;;;;;;5036573;28;20045;-74
2021/05/04 03:27:33;;;;;;;5.78;3.15;;;10.10;55.60;;;;;;5035163;28;20164;-74
2021/05/04 03:29:59;;;;;;;4.45;3.30;;;10.10;55.60;;;;;;5033698;28;20049;-74
2021/05/04 03:32:26;;;;;;;6.63;3.33;;;10.20;55.70;;;;;;5042363;28;20053;-74
2021/05/04 03:34:52;;;;;;;5.95;3.47;;;10.00;55.60;;;;;;5037158;28;20052;-74
2021/05/04 03:37:18;;;;;;;4.50;3.25;;;10.00;55.90;;;;;;5042517;28;20057;-74
2021/05/04 03:39:45;;;;;;;5.22;3.20;;;10.00;55.80;;;;;;5035581;28;20049;-75
2021/05/04 03:42:11;;;;;;;4.68;3.30;;;9.90;56.80;;;;;;5029536;28;20045;-74
2021/05/04 03:44:38;;;;;;;5.93;3.25;;;10.00;55.90;;;;;;5035021;28;20076;-75
2021/05/04 03:47:04;;;;;;;4.28;3.15;;;10.00;55.70;;;;;;5035020;28;20051;-74
2021/05/04 03:49:30;;;;;;;5.50;3.30;;;9.90;56.70;;;;;;5036744;28;20045;-75
2021/05/04 03:51:57;;;;;;;6.70;3.08;;;10.00;55.70;;;;;;5037287;28;20648;-73
2021/05/04 03:54:23;;;;;;;7.93;3.13;;;10.00;56.00;;;;;;5048111;28;20049;-73
2021/05/04 03:56:50;;;;;;;7.38;3.20;;;9.90;56.80;;;;;;5045008;28;20049;-74
2021/05/04 03:59:16;;;;;;;4.10;2.88;;;10.00;56.00;;;;;;5048228;28;20140;-74
2021/05/04 04:01:43;;;;;;;4.38;2.90;;;10.00;55.90;;;;;;5047646;28;20542;-74
2021/05/04 04:04:09;;;;;;;4.32;3.08;;;9.90;57.50;;;;;;5046083;28;20041;-74
2021/05/04 04:06:35;;;;;;;4.70;2.90;;;9.90;57.10;;;;;;5051444;28;20131;-75
2021/05/04 04:09:02;;;;;;;5.28;3.47;;;9.90;57.20;;;;;;5046500;28;20041;-73
2021/05/04 04:11:28;;;;;;;5.80;3.40;;;9.90;57.20;;;;;;5052089;28;20147;-74
2021/05/04 04:13:55;;;;;;;5.40;3.15;;;9.90;57.00;;;;;;5045561;28;20080;-75
2021/05/04 04:16:21;;;;;;;4.90;3.13;;;10.00;56.20;;;;;;5049949;28;20049;-74
2021/05/04 04:18:47;;;;;;;5.30;3.22;;;10.00;56.10;;;;;;5045344;28;20376;-73
2021/05/04 04:21:14;;;;;;;4.88;2.90;;;10.00;56.20;;;;;;5049006;28;20036;-75
2021/05/04 04:23:40;;;;;;;4.20;2.85;;;10.00;56.30;;;;;;5050392;28;20103;-75
2021/05/04 04:26:06;;;;;;;7.78;3.00;;;10.00;56.30;;;;;;5045907;28;20128;-75
2021/05/04 04:28:32;;;;;;;4.78;3.03;;;9.90;57.30;;;;;;5047768;28;20127;-74
2021/05/04 04:30:59;;;;;;;6.20;3.10;;;9.90;57.30;;;;;;5050376;28;20133;-74
2021/05/04 04:33:26;;;;;;;4.88;3.10;;;10.00;56.40;;;;;;5050512;28;20132;-75
2021/05/04 04:35:53;;;;;;;4.47;3.05;;;10.10;56.30;;;;;;5047854;28;20049;-74
2021/05/04 04:38:20;;;;;;;4.75;2.83;;;10.10;56.40;;;;;;5050107;28;20480;-75
2021/05/04 04:40:47;;;;;;;4.88;3.05;;;10.10;56.30;;;;;;5052118;28;20155;-74
2021/05/04 04:43:13;;;;;;;7.43;2.70;;;10.10;56.30;;;;;;5046944;28;20141;-74
2021/05/04 04:45:40;;;;;;;4.03;3.35;;;10.10;56.20;;;;;;5048528;28;20556;-75
2021/05/04 04:48:06;;;;;;;5.72;2.97;;;10.20;56.00;;;;;;5045374;28;20464;-75
2021/05/04 04:50:33;;;;;;;4.10;2.15;;;10.30;55.90;;;;;;5041270;28;20380;-75
2021/05/04 04:52:59;;;;;;;6.43;3.03;;;10.30;55.80;;;;;;5047092;28;20069;-74
2021/05/04 04:55:26;;;;;;;4.95;2.58;;;10.30;55.80;;;;;;5049704;28;20126;-75
2021/05/04 04:57:53;;;;;;;5.10;2.95;;;10.40;55.80;;;;;;5048158;28;20349;-74
2021/05/04 05:00:20;;;;;;;4.13;3.00;;;10.40;55.80;;;;;;5048156;28;20210;-75
2021/05/04 05:02:47;;;;;;;4.07;2.75;;;10.40;55.50;;;;;;5044034;28;20162;-74
2021/05/04 05:05:13;;;;;;;8.57;2.72;;;10.50;55.50;;;;;;5042479;28;20131;-75
2021/05/04 05:07:40;;;;;;;3.78;2.72;;;10.50;55.50;;;;;;5049045;28;20080;-75
2021/05/04 05:10:07;;;;;;;5.40;2.83;;;10.50;55.50;;;;;;5049718;28;20102;-75
2021/05/04 05:12:33;;;;;;;4.15;2.60;;;10.60;55.40;;;;;;5044791;28;20057;-75
2021/05/04 05:15:01;;;;;;;5.00;2.78;;;10.60;55.40;;;;;;5046414;28;20091;-75
2021/05/04 05:17:29;;;;;;;4.90;3.05;;;10.60;55.30;;;;;;5047873;28;20117;-75
2021/05/04 05:19:56;;;;;;;2.95;2.28;;;10.70;55.20;;;;;;5042855;28;20053;-75
2021/05/04 05:22:22;;;;;;;5.63;2.90;;;10.70;55.20;;;;;;5038398;28;20045;-73
2021/05/04 05:24:49;;;;;;;3.95;2.63;;;10.80;55.00;;;;;;5045334;28;20040;-74
2021/05/04 05:27:15;;;;;;;4.97;2.60;;;10.90;54.80;;;;;;5044925;28;20145;-74
2021/05/04 05:29:43;;;;;;;4.95;2.45;;;10.90;54.70;;;;;;5048285;28;20087;-75
2021/05/04 05:32:09;;;;;;;3.97;2.72;;;11.00;54.60;;;;;;5042378;28;20556;-75
2021/05/04 05:34:36;;;;;;;3.47;2.47;;;11.00;54.70;;;;;;5046346;28;20054;-75
2021/05/04 05:37:03;;;;;;;3.47;2.70;;;11.00;54.50;;;;;;5043633;28;20046;-75
2021/05/04 05:39:29;;;;;;;8.82;2.88;;;11.10;54.40;;;;;;5045668;28;20060;-75
2021/05/04 05:41:56;;;;;;;3.70;2.35;;;11.10;54.40;;;;;;5045093;28;20041;-74
2021/05/04 05:44:22;;;;;;;3.70;2.63;;;11.20;54.30;;;;;;5047360;28;20155;-74
2021/05/04 05:46:51;;;;;;;8.45;3.15;;;11.20;54.20;;;;;;5043235;28;20057;-74
2021/05/04 05:49:17;;;;;;;4.28;2.70;;;11.30;54.10;;;;;;5058749;28;20111;-75
2021/05/04 05:51:44;;;;;;;3.67;2.42;;;11.30;53.90;;;;;;5041547;28;20045;-75
2021/05/04 05:54:10;;;;;;;4.25;2.45;;;11.40;53.80;;;;;;5044135;28;20145;-75
2021/05/04 05:56:36;;;;;;;5.88;2.60;;;11.40;53.70;;;;;;5054003;28;20076;-75
2021/05/04 05:59:03;;;;;;;4.85;2.58;;;11.40;53.60;;;;;;5035955;28;20530;-75
2021/05/04 06:01:29;;;;;;;3.40;2.60;;;11.50;53.50;;;;;;5045878;28;20498;-75
2021/05/04 06:03:56;;;;;;;4.68;2.65;;;11.50;53.40;;;;;;5043376;28;20048;-74
2021/05/04 06:06:22;;;;;;;8.45;2.55;;;11.60;53.30;;;;;;5047213;28;20486;-75
2021/05/04 06:08:48;;;;;;;4.18;2.78;;;11.60;53.40;;;;;;5039202;28;20064;-75
2021/05/04 06:11:15;;;;;;;7.38;2.65;;;11.60;53.20;;;;;;5046547;28;20131;-75
2021/05/04 06:13:43;;;;;;;4.30;2.47;;;11.60;53.10;;;;;;5044074;28;20761;-74
2021/05/04 06:16:11;;;;;;;3.67;2.55;;;11.60;53.00;;;;;;5043760;28;20048;-75
2021/05/04 06:18:37;;;;;;;6.07;2.17;;;11.70;53.10;;;;;;5043818;28;20496;-75
2021/05/04 06:21:04;;;;;;;4.53;2.50;;;11.70;52.90;;;;;;5042185;28;20049;-74
2021/05/04 06:23:30;;;;;;;5.00;2.33;;;11.70;52.90;;;;;;5047251;28;20521;-75
2021/05/04 06:25:56;;;;;;;3.75;2.50;;;11.70;52.90;;;;;;5046454;28;20064;-74
2021/05/04 06:28:23;;;;;;;5.68;2.20;;;11.80;53.00;;;;;;5045019;28;20152;-76
2021/05/04 06:30:49;;;;;;;3.70;2.60;;;11.80;52.70;;;;;;5047987;28;20136;-75
2021/05/04 06:33:15;;;;;;;3.72;2.45;;;11.90;52.80;;;;;;5044976;28;20087;-75
2021/05/04 06:35:44;;;;;;;9.18;2.40;;;12.00;52.50;;;;;;5041212;28;20042;-75
2021/05/04 06:38:13;;;;;;;2.38;1.98;;;12.10;52.30;;;;;;5043572;28;20041;-75
2021/05/04 06:40:40;;;;;;;5.32;2.55;;;12.20;52.20;;;;;;5042312;28;20102;-75
2021/05/04 06:43:07;;;;;;;6.93;2.33;;;12.20;52.10;;;;;;5041199;28;20136;-74
2021/05/04 06:45:34;;;;;;;3.90;2.50;;;12.20;51.90;;;;;;5047890;28;20045;-75
2021/05/04 06:48:00;;;;;;;6.55;2.00;;;12.30;51.80;;;;;;5048332;28;20563;-76
2021/05/04 06:50:27;;;;;;;5.07;2.45;;;12.40;51.80;;;;;;5046832;28;20384;-75
2021/05/04 06:52:54;;;;;;;6.43;2.40;;;12.40;51.70;;;;;;5045182;28;20094;-74
2021/05/04 06:55:20;;;;;;;6.68;2.15;;;12.40;51.60;;;;;;5048961;28;20461;-74
2021/05/04 06:57:47;;;;;;;4.75;2.28;;;12.50;51.50;;;;;;5047133;28;20622;-75
2021/05/04 07:00:14;;;;;;;7.07;2.20;;;12.50;51.40;;;;;;5040719;28;20042;-74
2021/05/04 07:02:40;;;;;;;3.38;2.15;;;12.50;51.20;;;;;;5045576;28;20085;-74
2021/05/04 07:05:08;;;;;;;3.55;2.30;;;12.60;51.30;;;;;;5041440;28;20135;-74
2021/05/04 07:07:35;;;;;;;3.42;2.33;;;12.60;51.30;;;;;;5048328;28;20103;-75
2021/05/04 07:10:03;;;;;;;1.92;1.73;;;12.70;51.00;;;;;;5039677;28;20567;-74
2021/05/04 07:12:29;;;;;;;22.95;2.67;;;12.80;50.70;;;;;;5044362;28;20447;-73
2021/05/04 07:14:55;;;;;;;7.40;1.35;;;13.00;48.20;;;;;;5049446;28;20135;-74
2021/05/04 07:17:23;;;;;;;5.63;0.82;;;14.00;40.50;;;;;;5047301;28;20045;-74
2021/05/04 07:19:51;;;;;;;7.70;1.30;;;14.30;38.30;;;;;;5045582;28;20034;-74
2021/05/04 07:22:21;;;;;;;4.30;1.02;;;14.30;38.40;;;;;;5033265;28;20057;-75
2021/05/04 07:24:47;;;;;;;3.88;1.35;;;14.40;38.20;;;;;;5056701;28;20072;-72
2021/05/04 07:27:14;;;;;;;5.68;1.10;;;14.40;37.60;;;;;;5046428;28;20136;-74
2021/05/04 07:29:41;;;;;;;1.27;1.05;;;14.40;37.80;;;;;;5047822;28;20072;-72
2021/05/04 07:32:08;;;;;;;2.03;1.00;;;14.40;38.10;;;;;;5039359;28;20048;-73
2021/05/04 07:34:36;;;;;;;3.60;1.20;;;14.40;38.30;;;;;;5039584;28;20444;-74
2021/05/04 07:37:02;;;;;;;9.27;1.30;;;14.50;38.30;;;;;;5041948;28;20077;-73
2021/05/04 07:39:30;;;;;;;2.75;1.02;;;14.50;38.30;;;;;;5042360;28;20107;-74
2021/05/04 07:41:56;;;;;;;2.45;1.20;;;14.50;38.50;;;;;;5043580;28;20095;-73
2021/05/04 07:44:26;;;;;;;2.22;1.27;;;14.50;38.60;;;;;;5042350;28;20099;-73
2021/05/04 07:46:52;;;;;;;7.78;1.13;;;14.50;38.80;;;;;;5045622;28;20137;-74
2021/05/04 07:49:30;;;;;;;6.95;1.20;;;14.50;38.80;;;;;;5043032;28;20049;-74
2021/05/04 07:51:57;;;;;;;4.82;1.00;;;14.60;39.00;;;;;;5040881;28;20111;-74
2021/05/04 07:54:24;;;;;;;3.53;1.13;;;14.60;39.20;;;;;;5059602;28;20421;-74
2021/05/04 07:56:50;;;;;;;4.93;1.30;;;14.70;39.40;;;;;;5043934;28;20131;-74
2021/05/04 07:59:17;;;;;;;1.85;1.40;;;14.80;39.40;;;;;;5043499;28;20114;-74
2021/05/04 08:01:43;;;;;;;5.20;1.25;;;14.70;39.50;;;;;;5039454;28;20111;-74
2021/05/04 08:04:10;;;;;;;3.33;0.85;;;14.70;39.70;;;;;;5044499;28;20057;-74
2021/05/04 08:06:38;;;;;;;4.93;1.30;;;14.70;39.60;;;;;;5044009;28;20051;-75
2021/05/04 08:09:05;;;;;;;1.55;1.13;;;14.80;40.40;;;;;;5042600;28;20080;-74
2021/05/04 08:11:32;;;;;;;2.30;1.20;;;14.60;41.20;;;;;;5044154;28;20080;-75
2021/05/04 08:13:58;;;;;;;10.43;1.38;;;14.60;41.90;;;;;;5041587;28;20062;-75
2021/05/04 08:16:25;;;;;;;6.07;1.10;;;14.50;43.10;;;;;;5044235;28;20131;-74
2021/05/04 08:18:52;;;;;;;5.13;1.00;;;14.40;43.70;;;;;;5042659;28;20143;-74
2021/05/04 08:21:21;;;;;;;3.75;1.20;;;14.20;44.20;;;;;;5041613;28;20057;-74
2021/05/04 08:23:47;;;;;;;3.78;1.25;;;14.20;44.70;;;;;;5057712;28;20534;-73
2021/05/04 08:26:14;;;;;;;7.95;1.27;;;14.20;45.40;;;;;;5043105;28;20076;-74
2021/05/04 08:28:41;;;;;;;2.55;1.50;;;14.10;45.90;;;;;;5043179;28;20114;-74
2021/05/04 08:31:07;;;;;;;4.25;1.20;;;14.10;46.40;;;;;;5039591;28;20144;-74
2021/05/04 08:33:34;;;;;;;2.03;1.40;;;14.00;46.40;;;;;;5041128;28;20909;-74
2021/05/04 08:36:00;;;;;;;12.15;1.52;;;13.90;46.50;;;;;;5043125;28;20056;-73
2021/05/04 08:38:27;;;;;;;1.55;1.27;;;14.00;47.10;;;;;;5042238;28;20053;-74
2021/05/04 08:40:53;;;;;;;2.35;1.00;;;13.90;47.20;;;;;;5043264;28;20734;-75
2021/05/04 08:43:23;;;;;;;3.40;1.23;;;13.90;47.20;;;;;;5040672;28;20045;-74
2021/05/04 08:46:00;;;;;;;1.70;1.02;;;14.00;47.20;;;;;;5042461;28;20551;-75
2021/05/04 08:48:27;;;;;;;1.38;1.10;;;14.00;47.50;;;;;;5042448;28;20480;-75
2021/05/04 08:50:55;;;;;;;4.00;1.20;;;14.00;47.30;;;;;;5042971;28;20420;-74
2021/05/04 08:53:42;;;;;;;2.80;1.23;;;13.90;47.50;;;;;;5041754;28;20041;-74
2021/05/04 08:56:12;;;;;;;3.72;1.10;;;13.90;47.50;;;;;;5040290;28;20437;-74
2021/05/04 08:58:42;;;;;;;2.83;0.95;;;14.00;47.70;;;;;;5042539;28;20087;-81
2021/05/04 09:01:13;;;;;;;1.85;1.00;;;14.00;47.90;;;;;;5042721;28;20056;-74
2021/05/04 09:03:45;;;;;;;3.58;1.20;;;14.00;48.00;;;;;;5042488;28;20427;-74
2021/05/04 09:06:15;;;;;;;1.98;0.98;;;13.80;48.00;;;;;;5046683;28;20045;-74
2021/05/04 09:19:58;;;;;;;2.28;1.25;;;13.60;49.40;;;;;;5055893;28;20053;-74
2021/05/04 09:22:41;;;;;;;3.05;1.50;;;13.80;49.30;;;;;;5041649;28;20131;-73
2021/05/04 09:25:27;;;;;;;3.80;1.25;;;13.80;49.10;;;;;;5048613;28;20091;-74
2021/05/04 09:28:04;;;;;;;3.60;1.33;;;13.80;49.20;;;;;;5046418;28;20093;-74
2021/05/04 09:30:32;;;;;;;2.85;1.17;;;13.90;49.20;;;;;;5043057;28;20098;-73
2021/05/04 09:33:09;;;;;;;4.43;1.10;;;14.00;49.00;;;;;;5049366;28;20053;-73
2021/05/04 09:35:37;;;;;;;1.92;0.80;;;14.00;49.00;;;;;;5048760;28;20190;-74
2021/05/04 09:38:11;;;;;;;7.43;1.20;;;14.00;49.30;;;;;;5049269;28;20473;-75
2021/05/04 09:40:40;;;;;;;2.10;1.30;;;14.20;49.30;;;;;;5047791;28;20049;-74
2021/05/04 09:43:19;;;;;;;8.70;1.17;;;14.20;49.90;;;;;;5042549;28;20103;-74
2021/05/04 09:45:50;;;;;;;6.93;1.27;;;14.30;49.60;;;;;;5046596;28;20094;-73
2021/05/04 09:48:21;;;;;;;1.27;0.90;;;14.60;49.50;;;;;;5050000;28;20134;-74
2021/05/04 09:50:48;;;;;;;;;;;14.20;49.70;;;;;;5043334;28;20049;-74
2021/05/04 09:53:24;;;;;;;2.28;1.40;;;14.10;50.20;;;;;;5054937;28;20722;-73
2021/05/04 09:56:00;;;;;;;1.88;1.33;;;14.00;50.40;;;;;;5052811;28;20090;-74
2021/05/04 09:58:40;;;;;;;3.33;1.00;;;14.20;50.60;;;;;;5040029;28;20045;-74
2021/05/04 10:01:18;;;;;;;1.30;0.90;;;14.20;50.90;;;;;;5045997;28;20053;-77
2021/05/04 10:03:47;;;;;;;1.67;1.25;;;14.00;51.20;;;;;;5046119;28;20098;-72
2021/05/04 10:06:18;;;;;;;2.83;1.20;;;14.00;51.60;;;;;;5046585;28;20073;-73
2021/05/04 10:08:46;;;;;;;3.10;1.60;;;13.80;52.40;;;;;;5030411;28;20202;-72
2021/05/04 10:11:19;;;;;;;4.63;1.55;;;13.60;52.10;;;;;;5037715;28;20056;-73
2021/05/04 10:13:54;;;;;;;6.15;1.23;;;13.70;52.30;;;;;;5041136;28;20052;-72
2021/05/04 10:16:23;;;;;;;2.53;1.33;;;13.70;52.40;;;;;;5040821;28;20419;-74
2021/05/04 10:18:58;;;;;;;9.52;1.70;;;13.50;52.70;;;;;;5039836;28;20076;-73
2021/05/04 10:21:26;;;;;;;2.45;1.20;;;13.90;52.50;;;;;;5042345;28;21275;-73
2021/05/04 10:23:52;;;;;;;2.45;1.30;;;13.50;52.70;;;;;;5035133;28;20912;-72
2021/05/04 10:26:21;;;;;;;2.75;1.20;;;13.60;53.60;;;;;;5038868;28;20072;-72
2021/05/04 10:28:55;;;;;;;4.78;1.27;;;13.80;53.40;;;;;;5039234;28;20072;-71
2021/05/04 10:31:41;;;;;;;3.25;1.33;;;13.70;53.50;;;;;;5039628;28;20057;-72
2021/05/04 10:34:26;;;;;;;1.67;1.20;;;13.60;53.70;;;;;;5040926;28;20049;-72
2021/05/04 10:36:56;;;;;;;2.47;1.30;;;13.60;53.80;;;;;;5039301;28;20143;-72
2021/05/04 10:39:40;;;;;;;3.85;1.13;;;13.60;53.90;;;;;;5041395;28;20590;-72
2021/05/04 10:42:12;;;;;;;1.60;1.15;;;13.50;54.00;;;;;;5038920;28;20056;-73
2021/05/04 10:44:57;;;;;;;1.98;1.10;;;13.60;53.90;;;;;;5040783;28;20076;-73
2021/05/04 10:47:42;;;;;;;2.13;1.63;;;13.30;54.20;;;;;;5041269;28;20056;-72
2021/05/04 10:50:11;;;;;;;2.08;1.02;;;13.30;54.40;;;;;;5040169;28;20049;-73
2021/05/04 10:52:50;;;;;;;1.60;1.30;;;13.30;54.40;;;;;;5038652;28;20126;-72
2021/05/04 10:55:17;;;;;;;3.30;1.58;;;13.40;54.60;;;;;;5040118;28;20053;-73
2021/05/04 10:58:02;;;;;;;3.22;1.30;;;13.20;54.70;;;;;;5039718;28;20130;-73
2021/05/04 11:00:48;;;;;;;2.08;1.45;;;13.30;54.80;;;;;;5041673;28;20064;-72
2021/05/04 11:03:40;;;;;;;2.25;1.10;;;13.40;55.00;;;;;;5039845;28;20438;-73
2021/05/04 11:06:09;;;;;;;2.05;1.30;;;13.40;54.80;;;;;;5039431;28;20048;-72
2021/05/04 11:08:41;;;;;;;1.02;0.88;;;13.60;54.60;;;;;;5041666;28;20140;-72
2021/05/04 11:11:35;;;;;;;9.10;1.50;;;13.60;54.40;;;;;;5043508;28;20080;-73
2021/05/04 11:14:06;;;;;;;4.78;1.20;;;13.80;54.50;;;;;;5044607;28;20067;-72
2021/05/04 11:16:36;;;;;;;2.08;1.13;;;13.80;54.30;;;;;;5044638;28;20049;-72
2021/05/04 11:19:04;;;;;;;1.30;0.95;;;13.70;54.50;;;;;;5044291;28;20048;-72
2021/05/04 11:21:42;;;;;;;1.92;0.95;;;13.60;54.60;;;;;;5041852;28;20095;-72
2021/05/04 11:24:11;;;;;;;7.25;0.90;;;13.80;54.90;;;;;;5044030;28;20114;-73
2021/05/04 11:26:45;;;;;;;1.65;0.95;;;13.70;54.50;;;;;;5045568;28;20475;-72
2021/05/04 11:29:14;;;;;;;2.55;1.10;;;13.60;54.70;;;;;;5044495;28;20049;-72
2021/05/04 11:31:43;;;;;;;1.48;0.98;;;13.50;55.10;;;;;;5044765;28;20053;-74
2021/05/04 11:34:43;;;;;;;1.40;1.10;;;13.60;55.00;;;;;;5044829;28;20072;-73
2021/05/04 11:37:21;;;;;;;1.73;1.00;;;13.70;55.00;;;;;;5044349;28;20092;-72
2021/05/04 11:39:54;;;;;;;4.07;1.60;;;13.80;55.10;;;;;;5042793;28;20053;-72
2021/05/04 11:42:31;;;;;;;4.30;1.25;;;13.80;55.20;;;;;;5041824;28;20049;-72
2021/05/04 11:45:09;;;;;;;2.45;0.98;;;13.80;55.40;;;;;;5041655;28;20049;-73
2021/05/04 11:47:40;;;;;;;1.08;0.90;;;13.70;55.60;;;;;;5044057;28;20053;-73
2021/05/04 11:50:10;;;;;;;1.23;1.13;;;13.50;55.70;;;;;;5043867;28;20084;-71
2021/05/04 11:52:37;;;;;;;1.17;1.07;;;13.80;55.80;;;;;;5043331;28;20065;-71
2021/05/04 11:55:17;;;;;;;1.40;1.17;;;13.70;56.00;;;;;;5043725;28;20492;-71
2021/05/04 11:57:46;;;;;;;1.00;0.90;;;13.60;56.50;;;;;;5044951;28;20453;-71
2021/05/04 12:00:21;;;;;;;1.67;1.15;;;13.60;56.40;;;;;;5045275;28;20132;-71
2021/05/04 12:02:48;;;;;;;3.42;0.95;;;13.40;57.00;;;;;;5043733;28;20053;-71
2021/05/04 12:05:27;;;;;;;4.00;1.00;;;13.40;57.00;;;;;;5044098;28;20055;-71
2021/05/04 12:07:55;;;;;;;3.15;0.75;;;13.40;57.40;;;;;;5039177;28;20148;-70
2021/05/04 12:10:25;;;;;;;1.00;0.90;;;13.00;57.60;;;;;;5043292;28;20049;-71
2021/05/04 12:13:07;;;;;;;1.83;1.27;;;13.20;57.50;;;;;;5042724;28;20432;-71
2021/05/04 12:15:38;;;;;;;2.35;1.02;;;13.00;58.10;;;;;;5045013;28;20053;-71
2021/05/04 12:18:06;;;;;;;6.82;1.10;;;12.90;58.60;;;;;;5044338;28;20068;-71
2021/05/04 12:20:39;;;;;;;7.65;1.30;;;12.90;59.00;;;;;;5042079;28;20056;-70
2021/05/04 12:23:07;;;;;;;1.85;1.02;;;13.00;59.40;;;;;;5041022;28;20324;-71
2021/05/04 12:25:42;;;;;;;6.00;0.98;;;12.90;59.10;;;;;;5043267;28;20484;-71
2021/05/04 12:28:26;;;;;;;2.90;1.30;;;12.90;59.00;;;;;;5043676;28;20077;-71
2021/05/04 12:31:07;;;;;;;2.22;1.52;;;13.20;59.00;;;;;;5040658;28;20057;-71
2021/05/04 12:33:35;;;;;;;2.53;1.40;;;13.20;59.10;;;;;;5041404;28;20060;-71
2021/05/04 12:36:05;;;;;;;3.22;1.20;;;13.40;58.90;;;;;;5041865;28;20048;-71
2021/05/04 12:38:43;;;;;;;2.10;1.23;;;13.50;58.50;;;;;;5042878;28;20096;-70
2021/05/04 12:43:57;;;;;;;1.48;0.88;;;13.30;58.30;;;;;;5043832;28;20091;-71
2021/05/04 12:46:45;;;;;;;3.58;1.13;;;13.20;59.00;;;;;;5043853;28;20721;-70
2021/05/04 12:49:13;;;;;;;1.90;1.13;;;13.10;59.50;;;;;;5043269;28;20110;-71
2021/05/04 12:51:46;;;;;;;4.10;1.30;;;13.20;59.50;;;;;;5044776;28;20158;-71
2021/05/04 12:54:20;;;;;;;1.20;0.90;;;13.30;59.10;;;;;;5047744;28;20136;-71
2021/05/04 12:56:48;;;;;;;1.83;1.38;;;13.20;59.20;;;;;;5039206;28;20143;-72
2021/05/04 12:59:15;;;;;;;1.50;1.10;;;13.30;58.80;;;;;;5042021;28;20044;-71
2021/05/04 13:01:45;;;;;;;1.27;1.00;;;13.30;58.90;;;;;;5041539;28;20045;-70
2021/05/04 13:04:24;;;;;;;1.40;1.10;;;13.30;58.90;;;;;;5043789;28;20753;-71
2021/05/04 13:09:27;;;;;;;2.25;1.00;;;13.40;58.80;;;;;;5043128;28;20073;-71
2021/05/04 13:12:05;;;;;;;1.75;1.13;;;13.20;58.30;;;;;;5042584;28;20569;-71
2021/05/04 13:31:44;;;;;;;0.93;0.70;;;13.30;59.50;;;;;;5043411;28;20085;-69